sensor_id;sensor_type;location;lat;lon;timestamp;pressure;altitude;pressure_sealevel;temperature;humidity
49915;BME280;35806;47.958;13.158;2023-10-09T21:35:49;95184.54;;;18.09;42.90
49915;BME280;35806;47.958;13.158;2023-10-09T21:38:16;95184.18;;;17.80;41.28
49915;BME280;35806;47.958;13.158;2023-10-09T21:40:43;95190.57;;;18.36;41.31
49915;BME280;35806;47.958;13.158;2023-10-09T21:43:10;95194.92;;;19.03;41.74
49915;BME280;35806;47.958;13.158;2023-10-09T21:45:39;95200.45;;;18.81;41.33
49915;BME280;35806;47.958;13.158;2023-10-09T21:48:07;95212.09;;;18.93;41.54
49915;BME280;35806;47.958;13.158;2023-10-09T21:50:34;95208.33;;;18.73;41.94
49915;BME280;35806;47.958;13.158;2023-10-09T21:53:03;95206.40;;;19.28;40.79
49915;BME280;35806;47.958;13.158;2023-10-09T21:55:31;95209.10;;;18.79;41.83
49915;BME280;35806;47.958;13.158;2023-10-09T21:57:58;95206.23;;;18.65;42.00
49915;BME280;35806;47.958;13.158;2023-10-09T22:00:26;95204.36;;;18.89;41.21
49915;BME280;35806;47.958;13.158;2023-10-09T22:02:53;95207.65;;;18.45;43.54
49915;BME280;35806;47.958;13.158;2023-10-09T22:05:21;95203.45;;;18.90;45.11
49915;BME280;35806;47.958;13.158;2023-10-09T22:07:48;95208.29;;;18.63;42.61
49915;BME280;35806;47.958;13.158;2023-10-09T22:10:15;95211.64;;;18.63;43.65
49915;BME280;35806;47.958;13.158;2023-10-09T22:12:42;95205.55;;;19.22;45.23
49915;BME280;35806;47.958;13.158;2023-10-09T22:15:11;95210.01;;;18.97;45.86
49915;BME280;35806;47.958;13.158;2023-10-09T22:17:38;95209.29;;;18.48;43.47
49915;BME280;35806;47.958;13.158;2023-10-09T22:20:06;95205.61;;;19.01;45.75
49915;BME280;35806;47.958;13.158;2023-10-09T22:22:34;95204.73;;;18.88;46.80
49915;BME280;35806;47.958;13.158;2023-10-09T22:25:01;95212.32;;;18.78;45.81
49915;BME280;35806;47.958;13.158;2023-10-09T22:27:29;95209.18;;;18.77;44.06
49915;BME280;35806;47.958;13.158;2023-10-09T22:29:56;95214.49;;;18.67;44.41
49915;BME280;35806;47.958;13.158;2023-10-09T22:32:24;95215.69;;;18.59;44.04
49915;BME280;35806;47.958;13.158;2023-10-09T22:34:51;95220.89;;;18.97;43.90
49915;BME280;35806;47.958;13.158;2023-10-09T22:37:19;95214.73;;;18.63;44.25
49915;BME280;35806;47.958;13.158;2023-10-09T22:39:46;95212.87;;;18.80;45.59
49915;BME280;35806;47.958;13.158;2023-10-09T22:42:14;95210.75;;;18.97;46.33
49915;BME280;35806;47.958;13.158;2023-10-09T22:44:41;95209.38;;;18.64;46.03
49915;BME280;35806;47.958;13.158;2023-10-09T22:47:08;95204.67;;;18.97;45.05
49915;BME280;35806;47.958;13.158;2023-10-09T22:49:36;95205.90;;;18.75;45.72
49915;BME280;35806;47.958;13.158;2023-10-09T22:52:04;95208.59;;;18.60;43.22
49915;BME280;35806;47.958;13.158;2023-10-09T22:54:31;95205.65;;;18.85;43.84
49915;BME280;35806;47.958;13.158;2023-10-09T22:56:59;95207.73;;;18.09;44.22
49915;BME280;35806;47.958;13.158;2023-10-09T22:59:28;95211.44;;;18.47;42.77
49915;BME280;35806;47.958;13.158;2023-10-09T23:01:55;95209.68;;;18.27;41.66
49915;BME280;35806;47.958;13.158;2023-10-09T23:04:23;95208.99;;;18.91;43.08
49915;BME280;35806;47.958;13.158;2023-10-09T23:06:50;95207.01;;;18.50;41.25
49915;BME280;35806;47.958;13.158;2023-10-09T23:09:18;95202.94;;;18.38;41.27
49915;BME280;35806;47.958;13.158;2023-10-09T23:11:45;95206.49;;;18.68;41.28
49915;BME280;35806;47.958;13.158;2023-10-09T23:14:18;95211.28;;;18.86;42.56
49915;BME280;35806;47.958;13.158;2023-10-09T23:16:45;95209.99;;;18.24;42.15
49915;BME280;35806;47.958;13.158;2023-10-09T23:19:12;95210.52;;;19.01;42.00
49915;BME280;35806;47.958;13.158;2023-10-09T23:21:39;95210.81;;;18.57;42.75
49915;BME280;35806;47.958;13.158;2023-10-09T23:24:07;95213.92;;;18.34;41.55
49915;BME280;35806;47.958;13.158;2023-10-09T23:26:35;95209.92;;;18.60;42.16
49915;BME280;35806;47.958;13.158;2023-10-09T23:29:03;95211.39;;;19.19;41.79
49915;BME280;35806;47.958;13.158;2023-10-09T23:31:35;95211.92;;;19.30;42.19
49915;BME280;35806;47.958;13.158;2023-10-09T23:34:02;95216.88;;;18.23;41.59
49915;BME280;35806;47.958;13.158;2023-10-09T23:36:29;95213.32;;;19.26;41.83
49915;BME280;35806;47.958;13.158;2023-10-09T23:38:56;95213.88;;;19.23;40.43
49915;BME280;35806;47.958;13.158;2023-10-09T23:41:23;95211.66;;;19.05;40.40
49915;BME280;35806;47.958;13.158;2023-10-09T23:43:51;95210.29;;;19.16;40.64
49915;BME280;35806;47.958;13.158;2023-10-09T23:46:23;95210.66;;;19.46;40.43
49915;BME280;35806;47.958;13.158;2023-10-09T23:48:50;95211.20;;;18.48;40.37
49915;BME280;35806;47.958;13.158;2023-10-09T23:51:17;95213.09;;;18.96;41.38
49915;BME280;35806;47.958;13.158;2023-10-09T23:53:46;95221.88;;;18.72;39.55
49915;BME280;35806;47.958;13.158;2023-10-09T23:56:14;95223.03;;;19.11;40.26
49915;BME280;35806;47.958;13.158;2023-10-09T23:58:42;95221.90;;;18.43;39.95
